sensor_id;sensor_type;location;lat;lon;timestamp;temperature;humidity
22430;DHT22;11382;48.086;11.632;2023-03-23T00:02:13;9.00;99.90
22430;DHT22;11382;48.086;11.632;2023-03-23T00:04:41;9.00;99.90
22430;DHT22;11382;48.086;11.632;2023-03-23T00:07:09;9.10;99.90
22430;DHT22;11382;48.086;11.632;2023-03-23T00:09:39;9.00;99.90
22430;DHT22;11382;48.086;11.632;2023-03-23T00:12:07;9.00;99.90
22430;DHT22;11382;48.086;11.632;2023-03-23T00:14:34;9.00;99.90
22430;DHT22;11382;48.086;11.632;2023-03-23T00:17:09;9.00;99.90
22430;DHT22;11382;48.086;11.632;2023-03-23T00:19:37;9.00;99.90
22430;DHT22;11382;48.086;11.632;2023-03-23T00:22:12;9.00;99.90
22430;DHT22;11382;48.086;11.632;2023-03-23T00:24:40;9.10;99.90
22430;DHT22;11382;48.086;11.632;2023-03-23T00:27:08;9.00;99.90
22430;DHT22;11382;48.086;11.632;2023-03-23T00:29:38;8.80;99.90
22430;DHT22;11382;48.086;11.632;2023-03-23T00:32:05;8.80;99.90
22430;DHT22;11382;48.086;11.632;2023-03-23T00:34:32;8.70;99.90
22430;DHT22;11382;48.086;11.632;2023-03-23T00:37:00;8.80;99.90
22430;DHT22;11382;48.086;11.632;2023-03-23T00:39:28;8.80;99.90
22430;DHT22;11382;48.086;11.632;2023-03-23T00:41:56;8.80;99.90
22430;DHT22;11382;48.086;11.632;2023-03-23T00:44:26;8.80;99.90
22430;DHT22;11382;48.086;11.632;2023-03-23T00:46:54;8.80;99.90
22430;DHT22;11382;48.086;11.632;2023-03-23T00:49:23;8.70;99.90
22430;DHT22;11382;48.086;11.632;2023-03-23T00:51:51;8.70;99.90
22430;DHT22;11382;48.086;11.632;2023-03-23T00:54:19;8.60;99.90
22430;DHT22;11382;48.086;11.632;2023-03-23T00:56:49;8.60;99.90
22430;DHT22;11382;48.086;11.632;2023-03-23T00:59:18;8.70;99.90
22430;DHT22;11382;48.086;11.632;2023-03-23T01:01:45;8.70;99.90
22430;DHT22;11382;48.086;11.632;2023-03-23T01:04:13;8.60;99.90
22430;DHT22;11382;48.086;11.632;2023-03-23T01:06:42;8.60;99.90
22430;DHT22;11382;48.086;11.632;2023-03-23T01:09:12;8.60;99.90
22430;DHT22;11382;48.086;11.632;2023-03-23T01:11:44;8.60;99.90
22430;DHT22;11382;48.086;11.632;2023-03-23T01:14:12;8.60;99.90
22430;DHT22;11382;48.086;11.632;2023-03-23T01:16:42;8.60;99.90
22430;DHT22;11382;48.086;11.632;2023-03-23T01:19:09;8.60;99.90
22430;DHT22;11382;48.086;11.632;2023-03-23T01:21:36;8.60;99.90
22430;DHT22;11382;48.086;11.632;2023-03-23T01:24:03;8.70;99.90
22430;DHT22;11382;48.086;11.632;2023-03-23T01:26:30;8.70;99.90
22430;DHT22;11382;48.086;11.632;2023-03-23T01:28:57;8.70;99.90
22430;DHT22;11382;48.086;11.632;2023-03-23T01:31:26;8.60;99.90
22430;DHT22;11382;48.086;11.632;2023-03-23T01:33:54;8.50;99.90
22430;DHT22;11382;48.086;11.632;2023-03-23T01:36:24;8.60;99.90
22430;DHT22;11382;48.086;11.632;2023-03-23T01:38:53;8.60;99.90
22430;DHT22;11382;48.086;11.632;2023-03-23T01:41:21;8.60;99.90
22430;DHT22;11382;48.086;11.632;2023-03-23T01:43:57;8.60;99.90
22430;DHT22;11382;48.086;11.632;2023-03-23T01:46:26;8.60;99.90
22430;DHT22;11382;48.086;11.632;2023-03-23T01:49:01;8.60;99.90
22430;DHT22;11382;48.086;11.632;2023-03-23T01:51:34;8.70;99.90
22430;DHT22;11382;48.086;11.632;2023-03-23T01:54:05;8.70;99.90
22430;DHT22;11382;48.086;11.632;2023-03-23T01:56:39;8.60;99.90
22430;DHT22;11382;48.086;11.632;2023-03-23T01:59:07;8.70;99.90
22430;DHT22;11382;48.086;11.632;2023-03-23T02:01:38;8.60;99.90
22430;DHT22;11382;48.086;11.632;2023-03-23T02:04:12;8.60;99.90
22430;DHT22;11382;48.086;11.632;2023-03-23T02:06:40;8.70;99.90
22430;DHT22;11382;48.086;11.632;2023-03-23T02:09:18;8.70;99.90
22430;DHT22;11382;48.086;11.632;2023-03-23T02:11:48;8.60;99.90
22430;DHT22;11382;48.086;11.632;2023-03-23T02:14:17;8.60;99.90
22430;DHT22;11382;48.086;11.632;2023-03-23T02:16:47;8.60;99.90
22430;DHT22;11382;48.086;11.632;2023-03-23T02:19:31;8.50;99.90
22430;DHT22;11382;48.086;11.632;2023-03-23T02:25:04;8.50;99.90
22430;DHT22;11382;48.086;11.632;2023-03-23T02:28:02;8.50;99.90
22430;DHT22;11382;48.086;11.632;2023-03-23T02:30:46;8.50;99.90
22430;DHT22;11382;48.086;11.632;2023-03-23T02:33:29;8.50;99.90
22430;DHT22;11382;48.086;11.632;2023-03-23T02:36:01;8.50;99.90
22430;DHT22;11382;48.086;11.632;2023-03-23T02:38:34;8.60;99.90
22430;DHT22;11382;48.086;11.632;2023-03-23T02:41:02;8.50;99.90
22430;DHT22;11382;48.086;11.632;2023-03-23T02:43:33;8.60;99.90
22430;DHT22;11382;48.086;11.632;2023-03-23T02:46:05;8.60;99.90
22430;DHT22;11382;48.086;11.632;2023-03-23T02:48:36;8.60;99.90
22430;DHT22;11382;48.086;11.632;2023-03-23T02:51:04;8.60;99.90
22430;DHT22;11382;48.086;11.632;2023-03-23T02:53:34;8.60;99.90
22430;DHT22;11382;48.086;11.632;2023-03-23T02:56:04;8.50;99.90
22430;DHT22;11382;48.086;11.632;2023-03-23T02:58:34;8.40;99.90
22430;DHT22;11382;48.086;11.632;2023-03-23T03:01:15;8.40;99.90
22430;DHT22;11382;48.086;11.632;2023-03-23T03:03:45;8.50;99.90
22430;DHT22;11382;48.086;11.632;2023-03-23T03:06:21;8.50;99.90
22430;DHT22;11382;48.086;11.632;2023-03-23T03:08:53;8.40;99.90
22430;DHT22;11382;48.086;11.632;2023-03-23T03:11:23;8.40;99.90
22430;DHT22;11382;48.086;11.632;2023-03-23T03:13:55;8.40;99.90
22430;DHT22;11382;48.086;11.632;2023-03-23T03:16:28;8.30;99.90
22430;DHT22;11382;48.086;11.632;2023-03-23T03:19:02;8.30;99.90
22430;DHT22;11382;48.086;11.632;2023-03-23T03:21:31;8.30;99.90
22430;DHT22;11382;48.086;11.632;2023-03-23T03:24:02;8.30;99.90
22430;DHT22;11382;48.086;11.632;2023-03-23T03:26:31;8.30;99.90
22430;DHT22;11382;48.086;11.632;2023-03-23T03:29:21;8.30;99.90
22430;DHT22;11382;48.086;11.632;2023-03-23T03:31:54;8.20;99.90
22430;DHT22;11382;48.086;11.632;2023-03-23T03:34:23;8.20;99.90
22430;DHT22;11382;48.086;11.632;2023-03-23T03:36:53;8.10;99.90
22430;DHT22;11382;48.086;11.632;2023-03-23T03:39:22;8.10;99.90
22430;DHT22;11382;48.086;11.632;2023-03-23T03:41:49;8.10;99.90
22430;DHT22;11382;48.086;11.632;2023-03-23T03:44:16;8.10;99.90
22430;DHT22;11382;48.086;11.632;2023-03-23T03:46:43;8.20;99.90
22430;DHT22;11382;48.086;11.632;2023-03-23T03:49:11;8.20;99.90
22430;DHT22;11382;48.086;11.632;2023-03-23T03:51:41;8.20;99.90
22430;DHT22;11382;48.086;11.632;2023-03-23T03:54:16;8.10;99.90
22430;DHT22;11382;48.086;11.632;2023-03-23T03:56:43;8.10;99.90
22430;DHT22;11382;48.086;11.632;2023-03-23T03:59:37;8.20;99.90
22430;DHT22;11382;48.086;11.632;2023-03-23T04:02:24;8.20;99.90
22430;DHT22;11382;48.086;11.632;2023-03-23T04:04:53;8.20;99.90
22430;DHT22;11382;48.086;11.632;2023-03-23T04:07:21;8.20;99.90
22430;DHT22;11382;48.086;11.632;2023-03-23T04:09:52;8.20;99.90
22430;DHT22;11382;48.086;11.632;2023-03-23T04:12:20;8.10;99.90
22430;DHT22;11382;48.086;11.632;2023-03-23T04:14:56;8.20;99.90
22430;DHT22;11382;48.086;11.632;2023-03-23T04:17:29;8.20;99.90
22430;DHT22;11382;48.086;11.632;2023-03-23T04:19:56;8.00;99.90
22430;DHT22;11382;48.086;11.632;2023-03-23T04:22:27;7.90;99.90
22430;DHT22;11382;48.086;11.632;2023-03-23T04:24:59;8.00;99.90
22430;DHT22;11382;48.086;11.632;2023-03-23T04:27:28;8.10;99.90
22430;DHT22;11382;48.086;11.632;2023-03-23T04:29:58;8.20;99.90
22430;DHT22;11382;48.086;11.632;2023-03-23T04:32:40;8.20;99.90
22430;DHT22;11382;48.086;11.632;2023-03-23T04:35:10;8.20;99.90
22430;DHT22;11382;48.086;11.632;2023-03-23T04:37:44;8.10;99.90
22430;DHT22;11382;48.086;11.632;2023-03-23T04:40:16;8.00;99.90
22430;DHT22;11382;48.086;11.632;2023-03-23T04:42:50;8.00;99.90
22430;DHT22;11382;48.086;11.632;2023-03-23T04:45:30;8.00;99.90
22430;DHT22;11382;48.086;11.632;2023-03-23T04:47:59;8.10;99.90
22430;DHT22;11382;48.086;11.632;2023-03-23T04:50:37;8.10;99.90
22430;DHT22;11382;48.086;11.632;2023-03-23T04:53:16;8.00;99.90
22430;DHT22;11382;48.086;11.632;2023-03-23T04:55:43;7.90;99.90
22430;DHT22;11382;48.086;11.632;2023-03-23T04:58:14;8.00;99.90
22430;DHT22;11382;48.086;11.632;2023-03-23T05:00:55;8.10;99.90
22430;DHT22;11382;48.086;11.632;2023-03-23T05:03:24;8.10;99.90
22430;DHT22;11382;48.086;11.632;2023-03-23T05:05:54;8.20;99.90
22430;DHT22;11382;48.086;11.632;2023-03-23T05:08:23;8.20;99.90
22430;DHT22;11382;48.086;11.632;2023-03-23T05:10:51;8.30;99.90
22430;DHT22;11382;48.086;11.632;2023-03-23T05:13:20;8.30;99.90
22430;DHT22;11382;48.086;11.632;2023-03-23T05:15:52;8.30;99.90
22430;DHT22;11382;48.086;11.632;2023-03-23T05:18:19;8.30;99.90
22430;DHT22;11382;48.086;11.632;2023-03-23T05:20:47;8.30;99.90
22430;DHT22;11382;48.086;11.632;2023-03-23T05:23:18;8.20;99.90
22430;DHT22;11382;48.086;11.632;2023-03-23T05:25:54;8.20;99.90
22430;DHT22;11382;48.086;11.632;2023-03-23T05:28:21;8.30;99.90
22430;DHT22;11382;48.086;11.632;2023-03-23T05:30:54;8.30;99.90
22430;DHT22;11382;48.086;11.632;2023-03-23T05:33:26;8.40;99.90
22430;DHT22;11382;48.086;11.632;2023-03-23T05:36:22;8.60;99.90
22430;DHT22;11382;48.086;11.632;2023-03-23T05:39:09;8.70;99.90
22430;DHT22;11382;48.086;11.632;2023-03-23T05:41:57;8.60;99.90
22430;DHT22;11382;48.086;11.632;2023-03-23T05:44:31;8.70;99.90
22430;DHT22;11382;48.086;11.632;2023-03-23T05:46:59;8.60;99.90
22430;DHT22;11382;48.086;11.632;2023-03-23T05:49:26;8.60;99.90
22430;DHT22;11382;48.086;11.632;2023-03-23T05:51:54;8.70;99.90
22430;DHT22;11382;48.086;11.632;2023-03-23T05:54:21;8.80;99.90
22430;DHT22;11382;48.086;11.632;2023-03-23T05:56:49;8.90;99.90
22430;DHT22;11382;48.086;11.632;2023-03-23T05:59:41;9.00;99.90
22430;DHT22;11382;48.086;11.632;2023-03-23T06:02:14;8.90;99.90
22430;DHT22;11382;48.086;11.632;2023-03-23T06:04:41;8.60;99.90
22430;DHT22;11382;48.086;11.632;2023-03-23T06:07:22;8.50;99.90
22430;DHT22;11382;48.086;11.632;2023-03-23T06:09:56;8.50;99.90
22430;DHT22;11382;48.086;11.632;2023-03-23T06:12:23;8.70;99.90
22430;DHT22;11382;48.086;11.632;2023-03-23T06:15:11;8.90;99.90
22430;DHT22;11382;48.086;11.632;2023-03-23T06:17:58;9.00;99.90
22430;DHT22;11382;48.086;11.632;2023-03-23T06:20:31;9.10;99.90
22430;DHT22;11382;48.086;11.632;2023-03-23T06:23:04;9.10;99.90
22430;DHT22;11382;48.086;11.632;2023-03-23T06:25:33;9.20;99.90
22430;DHT22;11382;48.086;11.632;2023-03-23T06:28:01;9.40;99.90
22430;DHT22;11382;48.086;11.632;2023-03-23T06:30:31;9.60;99.90
22430;DHT22;11382;48.086;11.632;2023-03-23T06:32:59;9.60;99.90
22430;DHT22;11382;48.086;11.632;2023-03-23T06:35:45;9.70;99.90
22430;DHT22;11382;48.086;11.632;2023-03-23T06:38:24;9.70;99.90
22430;DHT22;11382;48.086;11.632;2023-03-23T06:40:54;9.70;99.90
22430;DHT22;11382;48.086;11.632;2023-03-23T06:43:24;9.80;99.90
22430;DHT22;11382;48.086;11.632;2023-03-23T06:46:02;9.90;99.90
22430;DHT22;11382;48.086;11.632;2023-03-23T06:48:41;10.00;99.90
22430;DHT22;11382;48.086;11.632;2023-03-23T06:51:12;10.00;99.90
22430;DHT22;11382;48.086;11.632;2023-03-23T06:53:44;10.10;99.90
22430;DHT22;11382;48.086;11.632;2023-03-23T06:56:12;10.10;99.90
22430;DHT22;11382;48.086;11.632;2023-03-23T06:58:41;10.00;99.90
22430;DHT22;11382;48.086;11.632;2023-03-23T07:01:10;10.10;99.90
22430;DHT22;11382;48.086;11.632;2023-03-23T07:03:45;10.10;99.90
22430;DHT22;11382;48.086;11.632;2023-03-23T07:06:16;10.20;99.90
22430;DHT22;11382;48.086;11.632;2023-03-23T07:08:49;10.10;99.90
22430;DHT22;11382;48.086;11.632;2023-03-23T07:11:21;10.30;99.90
22430;DHT22;11382;48.086;11.632;2023-03-23T07:13:48;10.40;99.90
22430;DHT22;11382;48.086;11.632;2023-03-23T07:16:18;10.30;99.90
22430;DHT22;11382;48.086;11.632;2023-03-23T07:18:45;10.40;99.90
22430;DHT22;11382;48.086;11.632;2023-03-23T07:21:12;10.40;99.90
22430;DHT22;11382;48.086;11.632;2023-03-23T07:23:40;10.60;99.90
22430;DHT22;11382;48.086;11.632;2023-03-23T07:26:15;10.80;99.90
22430;DHT22;11382;48.086;11.632;2023-03-23T07:28:48;10.90;99.90
22430;DHT22;11382;48.086;11.632;2023-03-23T07:31:25;11.20;99.90
22430;DHT22;11382;48.086;11.632;2023-03-23T07:33:54;11.80;99.90
22430;DHT22;11382;48.086;11.632;2023-03-23T07:36:25;12.50;99.90
22430;DHT22;11382;48.086;11.632;2023-03-23T07:38:52;12.90;99.90
22430;DHT22;11382;48.086;11.632;2023-03-23T07:41:21;13.30;99.90
22430;DHT22;11382;48.086;11.632;2023-03-23T07:43:50;14.40;99.90
22430;DHT22;11382;48.086;11.632;2023-03-23T07:46:30;14.20;99.90
22430;DHT22;11382;48.086;11.632;2023-03-23T07:49:09;13.50;99.90
22430;DHT22;11382;48.086;11.632;2023-03-23T07:51:42;13.40;99.90
22430;DHT22;11382;48.086;11.632;2023-03-23T07:54:11;13.70;99.90
22430;DHT22;11382;48.086;11.632;2023-03-23T07:57:04;13.70;99.90
22430;DHT22;11382;48.086;11.632;2023-03-23T07:59:36;14.00;99.90
22430;DHT22;11382;48.086;11.632;2023-03-23T08:02:05;14.80;99.90
22430;DHT22;11382;48.086;11.632;2023-03-23T08:04:47;15.90;99.90
22430;DHT22;11382;48.086;11.632;2023-03-23T08:07:14;16.60;99.90
22430;DHT22;11382;48.086;11.632;2023-03-23T08:09:50;16.00;99.90
22430;DHT22;11382;48.086;11.632;2023-03-23T08:12:36;15.40;99.90
22430;DHT22;11382;48.086;11.632;2023-03-23T08:15:23;15.20;99.90
22430;DHT22;11382;48.086;11.632;2023-03-23T08:17:51;14.90;99.90
22430;DHT22;11382;48.086;11.632;2023-03-23T08:20:38;14.80;99.90
22430;DHT22;11382;48.086;11.632;2023-03-23T08:23:13;15.00;99.90
22430;DHT22;11382;48.086;11.632;2023-03-23T08:26:00;15.10;99.90
22430;DHT22;11382;48.086;11.632;2023-03-23T08:28:44;15.30;99.90
22430;DHT22;11382;48.086;11.632;2023-03-23T08:31:29;15.60;99.90
22430;DHT22;11382;48.086;11.632;2023-03-23T08:34:08;15.40;99.90
22430;DHT22;11382;48.086;11.632;2023-03-23T08:36:44;15.30;99.90
22430;DHT22;11382;48.086;11.632;2023-03-23T08:39:27;15.30;99.90
22430;DHT22;11382;48.086;11.632;2023-03-23T08:42:07;15.20;99.90
22430;DHT22;11382;48.086;11.632;2023-03-23T08:45:02;15.00;99.90
22430;DHT22;11382;48.086;11.632;2023-03-23T08:47:57;15.00;99.90
22430;DHT22;11382;48.086;11.632;2023-03-23T08:50:44;15.30;99.90
22430;DHT22;11382;48.086;11.632;2023-03-23T08:53:32;15.60;99.90
22430;DHT22;11382;48.086;11.632;2023-03-23T08:56:18;15.70;99.90
22430;DHT22;11382;48.086;11.632;2023-03-23T08:59:03;15.60;99.90
22430;DHT22;11382;48.086;11.632;2023-03-23T09:01:36;15.80;99.90
22430;DHT22;11382;48.086;11.632;2023-03-23T09:04:16;15.80;99.90
22430;DHT22;11382;48.086;11.632;2023-03-23T09:06:55;15.90;99.90
22430;DHT22;11382;48.086;11.632;2023-03-23T09:09:22;15.90;99.90
22430;DHT22;11382;48.086;11.632;2023-03-23T09:11:49;16.10;99.90
22430;DHT22;11382;48.086;11.632;2023-03-23T09:14:16;16.20;99.90
22430;DHT22;11382;48.086;11.632;2023-03-23T09:16:43;16.70;99.90
22430;DHT22;11382;48.086;11.632;2023-03-23T09:19:13;17.50;99.90
22430;DHT22;11382;48.086;11.632;2023-03-23T09:21:41;18.20;99.90
22430;DHT22;11382;48.086;11.632;2023-03-23T09:24:09;18.80;99.90
22430;DHT22;11382;48.086;11.632;2023-03-23T09:26:36;19.20;99.90
22430;DHT22;11382;48.086;11.632;2023-03-23T09:29:03;19.30;99.90
22430;DHT22;11382;48.086;11.632;2023-03-23T09:31:30;19.30;99.90
22430;DHT22;11382;48.086;11.632;2023-03-23T09:33:57;19.20;99.20
22430;DHT22;11382;48.086;11.632;2023-03-23T09:36:24;19.10;99.00
22430;DHT22;11382;48.086;11.632;2023-03-23T09:38:54;19.50;99.00
22430;DHT22;11382;48.086;11.632;2023-03-23T09:41:44;19.50;99.40
22430;DHT22;11382;48.086;11.632;2023-03-23T09:44:21;19.90;98.10
22430;DHT22;11382;48.086;11.632;2023-03-23T09:46:57;20.00;97.90
22430;DHT22;11382;48.086;11.632;2023-03-23T09:49:28;20.10;97.00
22430;DHT22;11382;48.086;11.632;2023-03-23T09:52:02;20.10;95.40
22430;DHT22;11382;48.086;11.632;2023-03-23T09:54:34;20.10;94.80
22430;DHT22;11382;48.086;11.632;2023-03-23T09:57:05;19.90;93.90
22430;DHT22;11382;48.086;11.632;2023-03-23T09:59:41;19.90;94.30
22430;DHT22;11382;48.086;11.632;2023-03-23T10:02:13;20.00;93.70
22430;DHT22;11382;48.086;11.632;2023-03-23T10:04:44;20.30;93.00
22430;DHT22;11382;48.086;11.632;2023-03-23T10:07:13;21.10;91.50
22430;DHT22;11382;48.086;11.632;2023-03-23T10:09:42;21.20;90.90
22430;DHT22;11382;48.086;11.632;2023-03-23T10:12:18;22.50;87.70
22430;DHT22;11382;48.086;11.632;2023-03-23T10:14:57;23.00;82.00
22430;DHT22;11382;48.086;11.632;2023-03-23T10:17:28;22.80;82.30
22430;DHT22;11382;48.086;11.632;2023-03-23T10:20:05;22.50;81.70
22430;DHT22;11382;48.086;11.632;2023-03-23T10:22:41;22.10;83.20
22430;DHT22;11382;48.086;11.632;2023-03-23T10:25:15;21.80;82.70
22430;DHT22;11382;48.086;11.632;2023-03-23T10:27:49;21.50;82.40
22430;DHT22;11382;48.086;11.632;2023-03-23T10:30:22;21.10;82.50
22430;DHT22;11382;48.086;11.632;2023-03-23T10:32:53;20.70;83.00
22430;DHT22;11382;48.086;11.632;2023-03-23T10:35:25;20.50;83.50
22430;DHT22;11382;48.086;11.632;2023-03-23T10:37:59;19.80;84.50
22430;DHT22;11382;48.086;11.632;2023-03-23T10:40:29;19.30;86.70
22430;DHT22;11382;48.086;11.632;2023-03-23T10:42:58;19.30;87.60
22430;DHT22;11382;48.086;11.632;2023-03-23T10:45:27;19.20;88.40
22430;DHT22;11382;48.086;11.632;2023-03-23T10:47:58;19.00;90.10
22430;DHT22;11382;48.086;11.632;2023-03-23T10:50:29;19.10;90.20
22430;DHT22;11382;48.086;11.632;2023-03-23T10:52:58;19.10;89.70
22430;DHT22;11382;48.086;11.632;2023-03-23T10:55:36;19.10;89.70
22430;DHT22;11382;48.086;11.632;2023-03-23T10:58:06;19.50;90.00
22430;DHT22;11382;48.086;11.632;2023-03-23T11:00:40;19.60;89.90
22430;DHT22;11382;48.086;11.632;2023-03-23T11:03:24;19.80;89.00
22430;DHT22;11382;48.086;11.632;2023-03-23T11:05:53;19.60;88.90
22430;DHT22;11382;48.086;11.632;2023-03-23T11:08:24;19.70;88.90
22430;DHT22;11382;48.086;11.632;2023-03-23T11:10:53;19.90;89.40
22430;DHT22;11382;48.086;11.632;2023-03-23T11:13:23;20.60;88.40
22430;DHT22;11382;48.086;11.632;2023-03-23T11:15:54;20.80;86.40
22430;DHT22;11382;48.086;11.632;2023-03-23T11:18:25;20.70;84.80
22430;DHT22;11382;48.086;11.632;2023-03-23T11:20:56;20.80;84.00
22430;DHT22;11382;48.086;11.632;2023-03-23T11:23:24;20.80;84.20
22430;DHT22;11382;48.086;11.632;2023-03-23T11:25:56;20.60;84.00
22430;DHT22;11382;48.086;11.632;2023-03-23T11:28:29;20.60;82.60
22430;DHT22;11382;48.086;11.632;2023-03-23T11:30:59;20.80;82.50
22430;DHT22;11382;48.086;11.632;2023-03-23T11:33:30;20.80;81.60
22430;DHT22;11382;48.086;11.632;2023-03-23T11:35:57;20.60;80.90
22430;DHT22;11382;48.086;11.632;2023-03-23T11:38:25;20.80;81.10
22430;DHT22;11382;48.086;11.632;2023-03-23T11:40:54;21.10;80.70
22430;DHT22;11382;48.086;11.632;2023-03-23T11:43:22;21.30;80.20
22430;DHT22;11382;48.086;11.632;2023-03-23T11:46:09;21.30;80.90
22430;DHT22;11382;48.086;11.632;2023-03-23T11:48:44;21.40;81.70
22430;DHT22;11382;48.086;11.632;2023-03-23T11:51:17;21.90;79.90
22430;DHT22;11382;48.086;11.632;2023-03-23T11:53:49;22.50;77.50
22430;DHT22;11382;48.086;11.632;2023-03-23T11:56:23;22.40;76.70
22430;DHT22;11382;48.086;11.632;2023-03-23T11:58:52;22.60;75.80
22430;DHT22;11382;48.086;11.632;2023-03-23T12:01:36;22.10;76.30
22430;DHT22;11382;48.086;11.632;2023-03-23T12:04:31;22.20;76.40
22430;DHT22;11382;48.086;11.632;2023-03-23T12:07:13;22.70;75.70
22430;DHT22;11382;48.086;11.632;2023-03-23T12:09:49;23.50;76.40
22430;DHT22;11382;48.086;11.632;2023-03-23T12:12:23;23.70;73.00
22430;DHT22;11382;48.086;11.632;2023-03-23T12:15:01;23.30;75.30
22430;DHT22;11382;48.086;11.632;2023-03-23T12:17:40;23.50;73.50
22430;DHT22;11382;48.086;11.632;2023-03-23T12:20:25;22.60;74.60
22430;DHT22;11382;48.086;11.632;2023-03-23T12:23:07;22.70;74.50
22430;DHT22;11382;48.086;11.632;2023-03-23T12:25:55;23.10;72.70
22430;DHT22;11382;48.086;11.632;2023-03-23T12:28:37;23.10;73.60
22430;DHT22;11382;48.086;11.632;2023-03-23T12:31:11;23.40;70.90
22430;DHT22;11382;48.086;11.632;2023-03-23T12:33:59;23.60;69.70
22430;DHT22;11382;48.086;11.632;2023-03-23T12:36:43;22.70;69.90
22430;DHT22;11382;48.086;11.632;2023-03-23T12:39:48;22.30;71.70
22430;DHT22;11382;48.086;11.632;2023-03-23T12:42:21;22.20;72.00
22430;DHT22;11382;48.086;11.632;2023-03-23T12:44:53;22.30;72.20
22430;DHT22;11382;48.086;11.632;2023-03-23T12:47:30;22.20;73.40
22430;DHT22;11382;48.086;11.632;2023-03-23T12:50:05;22.20;72.10
22430;DHT22;11382;48.086;11.632;2023-03-23T12:52:38;22.00;72.80
22430;DHT22;11382;48.086;11.632;2023-03-23T12:55:16;21.60;73.10
22430;DHT22;11382;48.086;11.632;2023-03-23T12:57:49;21.30;73.10
22430;DHT22;11382;48.086;11.632;2023-03-23T13:00:23;21.10;72.10
22430;DHT22;11382;48.086;11.632;2023-03-23T13:02:57;20.70;73.60
22430;DHT22;11382;48.086;11.632;2023-03-23T13:05:33;20.70;72.30
22430;DHT22;11382;48.086;11.632;2023-03-23T13:08:05;20.90;73.50
22430;DHT22;11382;48.086;11.632;2023-03-23T13:10:38;21.00;71.30
22430;DHT22;11382;48.086;11.632;2023-03-23T13:13:12;20.80;71.50
22430;DHT22;11382;48.086;11.632;2023-03-23T13:15:59;20.60;72.60
22430;DHT22;11382;48.086;11.632;2023-03-23T13:18:34;20.40;73.10
22430;DHT22;11382;48.086;11.632;2023-03-23T13:21:14;20.50;72.10
22430;DHT22;11382;48.086;11.632;2023-03-23T13:23:48;20.70;72.80
22430;DHT22;11382;48.086;11.632;2023-03-23T13:26:19;20.80;72.00
22430;DHT22;11382;48.086;11.632;2023-03-23T13:28:58;20.90;72.10
22430;DHT22;11382;48.086;11.632;2023-03-23T13:31:29;20.60;73.20
22430;DHT22;11382;48.086;11.632;2023-03-23T13:34:02;20.40;72.10
22430;DHT22;11382;48.086;11.632;2023-03-23T13:36:35;20.30;71.90
22430;DHT22;11382;48.086;11.632;2023-03-23T13:39:04;20.20;72.60
22430;DHT22;11382;48.086;11.632;2023-03-23T13:41:44;20.40;73.00
22430;DHT22;11382;48.086;11.632;2023-03-23T13:44:18;20.50;74.40
22430;DHT22;11382;48.086;11.632;2023-03-23T13:46:55;20.50;73.70
22430;DHT22;11382;48.086;11.632;2023-03-23T13:49:24;20.50;73.30
22430;DHT22;11382;48.086;11.632;2023-03-23T13:52:01;20.50;75.00
22430;DHT22;11382;48.086;11.632;2023-03-23T13:54:40;20.20;75.00
22430;DHT22;11382;48.086;11.632;2023-03-23T13:57:24;20.10;75.20
22430;DHT22;11382;48.086;11.632;2023-03-23T13:59:56;20.20;75.90
22430;DHT22;11382;48.086;11.632;2023-03-23T14:02:34;20.50;75.70
22430;DHT22;11382;48.086;11.632;2023-03-23T14:05:11;20.40;75.80
22430;DHT22;11382;48.086;11.632;2023-03-23T14:08:01;20.50;75.30
22430;DHT22;11382;48.086;11.632;2023-03-23T14:10:39;20.30;75.50
22430;DHT22;11382;48.086;11.632;2023-03-23T14:13:17;20.10;77.50
22430;DHT22;11382;48.086;11.632;2023-03-23T14:15:55;19.80;76.90
22430;DHT22;11382;48.086;11.632;2023-03-23T14:18:26;19.80;77.70
22430;DHT22;11382;48.086;11.632;2023-03-23T14:20:53;19.90;78.80
22430;DHT22;11382;48.086;11.632;2023-03-23T14:23:23;20.00;79.30
22430;DHT22;11382;48.086;11.632;2023-03-23T14:25:59;20.30;80.10
22430;DHT22;11382;48.086;11.632;2023-03-23T14:28:31;20.00;80.30
22430;DHT22;11382;48.086;11.632;2023-03-23T14:30:59;19.90;81.80
22430;DHT22;11382;48.086;11.632;2023-03-23T14:33:26;19.70;81.70
22430;DHT22;11382;48.086;11.632;2023-03-23T14:35:56;19.70;81.50
22430;DHT22;11382;48.086;11.632;2023-03-23T14:38:25;19.60;81.00
22430;DHT22;11382;48.086;11.632;2023-03-23T14:41:01;19.80;81.30
22430;DHT22;11382;48.086;11.632;2023-03-23T14:43:29;19.80;79.60
22430;DHT22;11382;48.086;11.632;2023-03-23T14:46:00;19.80;80.20
22430;DHT22;11382;48.086;11.632;2023-03-23T14:48:28;19.80;80.50
22430;DHT22;11382;48.086;11.632;2023-03-23T14:50:57;19.90;81.00
22430;DHT22;11382;48.086;11.632;2023-03-23T14:53:33;20.30;79.70
22430;DHT22;11382;48.086;11.632;2023-03-23T14:56:04;20.00;78.90
22430;DHT22;11382;48.086;11.632;2023-03-23T14:58:33;19.80;80.50
22430;DHT22;11382;48.086;11.632;2023-03-23T15:01:03;19.80;80.90
22430;DHT22;11382;48.086;11.632;2023-03-23T15:03:35;19.90;80.80
22430;DHT22;11382;48.086;11.632;2023-03-23T15:06:05;19.70;81.30
22430;DHT22;11382;48.086;11.632;2023-03-23T15:08:35;19.70;82.00
22430;DHT22;11382;48.086;11.632;2023-03-23T15:11:08;19.60;82.40
22430;DHT22;11382;48.086;11.632;2023-03-23T15:13:42;19.50;81.80
22430;DHT22;11382;48.086;11.632;2023-03-23T15:16:14;19.20;84.10
22430;DHT22;11382;48.086;11.632;2023-03-23T15:18:49;19.20;83.50
22430;DHT22;11382;48.086;11.632;2023-03-23T15:21:22;19.20;83.30
22430;DHT22;11382;48.086;11.632;2023-03-23T15:23:52;19.20;84.00
22430;DHT22;11382;48.086;11.632;2023-03-23T15:26:28;19.20;83.60
22430;DHT22;11382;48.086;11.632;2023-03-23T15:29:15;19.10;85.10
22430;DHT22;11382;48.086;11.632;2023-03-23T15:31:45;19.00;85.10
22430;DHT22;11382;48.086;11.632;2023-03-23T15:34:21;18.90;84.00
22430;DHT22;11382;48.086;11.632;2023-03-23T15:36:54;18.70;85.10
22430;DHT22;11382;48.086;11.632;2023-03-23T15:39:23;18.50;85.00
22430;DHT22;11382;48.086;11.632;2023-03-23T15:41:52;18.40;85.50
22430;DHT22;11382;48.086;11.632;2023-03-23T15:44:31;18.20;87.00
22430;DHT22;11382;48.086;11.632;2023-03-23T15:47:13;18.30;87.80
22430;DHT22;11382;48.086;11.632;2023-03-23T15:49:41;18.20;87.70
22430;DHT22;11382;48.086;11.632;2023-03-23T15:52:10;18.10;89.00
22430;DHT22;11382;48.086;11.632;2023-03-23T15:54:40;18.00;88.30
22430;DHT22;11382;48.086;11.632;2023-03-23T15:57:12;17.80;89.20
22430;DHT22;11382;48.086;11.632;2023-03-23T15:59:39;17.70;89.10
22430;DHT22;11382;48.086;11.632;2023-03-23T16:02:15;17.70;90.10
22430;DHT22;11382;48.086;11.632;2023-03-23T16:04:45;17.60;90.20